createdAt,value
2018-07-19T00:00:27.459Z,4.20
2018-07-19T00:02:54.747Z,4.43
2018-07-19T00:05:22.077Z,4.37
2018-07-19T00:07:49.381Z,4.20
2018-07-19T00:10:16.701Z,4.40
2018-07-19T00:12:44.072Z,4.60
2018-07-19T00:15:11.436Z,4.20
2018-07-19T00:17:38.770Z,4.47
2018-07-19T00:20:06.466Z,4.10
2018-07-19T00:22:33.766Z,5.37
2018-07-19T00:25:01.269Z,5.03
2018-07-19T00:27:28.909Z,4.80
2018-07-19T00:29:56.382Z,4.20
2018-07-19T00:32:23.733Z,4.47
2018-07-19T00:34:51.076Z,4.50
2018-07-19T00:37:18.472Z,4.40
2018-07-19T00:39:45.910Z,4.40
2018-07-19T00:42:13.222Z,5.37
2018-07-19T00:44:40.565Z,5.70
2018-07-19T00:47:07.901Z,4.80
2018-07-19T00:49:35.682Z,5.13
2018-07-19T00:52:03.066Z,4.70
2018-07-19T00:54:30.365Z,4.87
2018-07-19T00:56:57.862Z,4.73
2018-07-19T00:59:25.217Z,4.80
2018-07-19T01:01:52.536Z,4.83
2018-07-19T01:04:19.934Z,4.40
2018-07-19T01:06:47.350Z,4.70
2018-07-19T01:09:14.668Z,4.60
2018-07-19T01:11:42.018Z,4.20
2018-07-19T01:14:09.805Z,4.10
2018-07-19T01:16:37.181Z,5.30
2018-07-19T01:19:04.593Z,3.97
2018-07-19T01:21:32.368Z,4.20
2018-07-19T01:23:59.956Z,4.50
2018-07-19T01:26:27.378Z,4.20
2018-07-19T01:28:54.872Z,4.43
2018-07-19T01:31:22.231Z,4.47
2018-07-19T01:33:49.553Z,4.60
2018-07-19T01:36:16.881Z,4.63
2018-07-19T01:38:44.165Z,4.53
2018-07-19T01:41:16.928Z,4.77
2018-07-19T01:43:44.208Z,4.40
2018-07-19T01:46:11.538Z,4.63
2018-07-19T01:48:38.867Z,4.57
2018-07-19T01:51:06.212Z,4.67
2018-07-19T01:53:33.615Z,4.50
2018-07-19T01:56:00.927Z,4.40
2018-07-19T01:58:28.239Z,5.00
2018-07-19T02:00:55.564Z,4.67
2018-07-19T02:03:22.943Z,4.63
2018-07-19T02:05:50.340Z,4.30
2018-07-19T02:08:17.676Z,4.30
2018-07-19T02:10:44.976Z,4.40
2018-07-19T02:13:12.304Z,4.77
2018-07-19T02:15:39.627Z,4.53
2018-07-19T02:18:07.806Z,4.00
2018-07-19T02:20:35.734Z,4.80
2018-07-19T02:23:03.108Z,4.40
2018-07-19T02:25:30.460Z,4.30
2018-07-19T02:27:57.806Z,4.50
2018-07-19T02:30:25.130Z,4.60
2018-07-19T02:32:52.422Z,4.30
2018-07-19T02:35:20.454Z,5.13
2018-07-19T02:37:47.769Z,4.83
2018-07-19T02:40:15.055Z,4.47
2018-07-19T02:42:42.344Z,4.70
2018-07-19T02:45:09.696Z,4.53
2018-07-19T02:47:37.041Z,4.50
2018-07-19T02:50:04.567Z,4.80
2018-07-19T02:52:32.092Z,4.90
2018-07-19T02:54:59.516Z,5.00
2018-07-19T02:57:26.849Z,5.20
2018-07-19T02:59:54.210Z,4.93
2018-07-19T03:02:21.531Z,4.53
2018-07-19T03:04:48.851Z,5.33
2018-07-19T03:07:17.809Z,5.50
2018-07-19T03:09:45.162Z,5.67
2018-07-19T03:12:12.452Z,5.03
2018-07-19T03:14:39.816Z,5.60
2018-07-19T03:17:07.103Z,5.30
2018-07-19T03:19:34.418Z,5.20
2018-07-19T03:22:02.166Z,5.63
2018-07-19T03:24:31.486Z,5.30
2018-07-19T03:26:58.783Z,5.97
2018-07-19T03:29:26.121Z,5.50
2018-07-19T03:31:53.439Z,5.40
2018-07-19T03:34:20.788Z,4.43
2018-07-19T03:36:48.272Z,5.40
2018-07-19T03:39:15.583Z,5.53
2018-07-19T03:41:42.892Z,5.37
2018-07-19T03:44:10.150Z,4.80
2018-07-19T03:46:37.795Z,5.30
2018-07-19T03:49:05.120Z,4.70
2018-07-19T03:51:33.436Z,5.37
2018-07-19T03:54:01.690Z,5.90
2018-07-19T03:56:29.012Z,6.30
2018-07-19T03:58:56.320Z,5.67
2018-07-19T04:01:23.598Z,6.67
2018-07-19T04:03:50.926Z,5.30
2018-07-19T04:06:18.232Z,5.50
2018-07-19T04:08:45.522Z,5.90
2018-07-19T04:11:12.838Z,5.80
2018-07-19T04:13:40.167Z,5.90
2018-07-19T04:16:07.456Z,5.60
2018-07-19T04:18:34.759Z,5.30
2018-07-19T04:21:02.089Z,5.57
2018-07-19T04:23:29.422Z,4.90
2018-07-19T04:25:56.766Z,5.20
2018-07-19T04:28:24.109Z,5.13
2018-07-19T04:30:51.406Z,5.53
2018-07-19T04:33:18.749Z,6.27
2018-07-19T04:35:46.238Z,5.27
2018-07-19T04:38:13.553Z,5.20
2018-07-19T04:40:41.211Z,5.60
2018-07-19T04:43:08.495Z,5.07
2018-07-19T04:45:36.398Z,4.80
2018-07-19T04:48:03.699Z,5.30
2018-07-19T04:50:31.265Z,5.73
2018-07-19T04:52:58.556Z,5.07
2018-07-19T04:55:26.309Z,6.13
2018-07-19T04:57:56.091Z,5.30
2018-07-19T05:00:25.388Z,4.87
2018-07-19T05:02:52.713Z,5.20
2018-07-19T05:05:20.306Z,4.60
2018-07-19T05:07:51.912Z,4.63
2018-07-19T05:10:19.476Z,5.07
2018-07-19T05:15:28.093Z,4.63
2018-07-19T05:17:55.400Z,4.13
2018-07-19T05:20:22.738Z,4.10
2018-07-19T05:22:50.058Z,4.60
2018-07-19T05:25:18.370Z,4.50
2018-07-19T05:27:45.722Z,4.40
2018-07-19T05:30:13.062Z,4.20
2018-07-19T05:32:40.410Z,4.40
2018-07-19T05:35:07.837Z,4.10
2018-07-19T05:37:35.313Z,3.70
2018-07-19T05:40:02.635Z,4.20
2018-07-19T05:42:30.077Z,4.17
2018-07-19T05:44:57.357Z,4.00
2018-07-19T05:47:24.687Z,3.77
2018-07-19T05:49:52.948Z,4.00
2018-07-19T05:52:20.398Z,4.10
2018-07-19T05:54:47.799Z,3.77
2018-07-19T05:57:15.201Z,4.27
2018-07-19T05:59:43.539Z,4.13
2018-07-19T06:02:11.005Z,3.57
2018-07-19T06:04:38.424Z,4.00
2018-07-19T06:07:05.897Z,4.60
2018-07-19T06:09:35.317Z,3.77
2018-07-19T06:12:03.177Z,4.40
2018-07-19T06:14:30.632Z,3.90
2018-07-19T06:16:58.098Z,3.90
2018-07-19T06:19:25.517Z,3.90
2018-07-19T06:21:52.961Z,3.70
2018-07-19T06:24:20.342Z,4.13
2018-07-19T06:26:47.742Z,3.97
2018-07-19T06:29:15.150Z,3.50
2018-07-19T06:31:42.464Z,3.47
2018-07-19T06:34:10.045Z,3.20
2018-07-19T06:36:37.405Z,3.90
2018-07-19T06:39:07.149Z,3.40
2018-07-19T06:41:34.531Z,3.30
2018-07-19T06:44:01.886Z,4.20
2018-07-19T06:46:29.238Z,3.73
2018-07-19T06:48:56.605Z,3.80
2018-07-19T06:51:23.981Z,3.70
2018-07-19T06:53:54.288Z,3.20
2018-07-19T06:56:21.609Z,3.30
2018-07-19T06:58:48.938Z,3.20
2018-07-19T07:01:16.216Z,3.43
2018-07-19T07:03:43.640Z,3.43
2018-07-19T07:06:10.942Z,3.50
2018-07-19T07:08:38.301Z,3.60
2018-07-19T07:11:12.584Z,3.17
2018-07-19T07:13:39.943Z,3.20
2018-07-19T07:16:07.320Z,3.30
2018-07-19T07:18:34.662Z,3.63
2018-07-19T07:21:02.010Z,3.33
2018-07-19T07:23:29.398Z,3.00
2018-07-19T07:25:56.777Z,3.40
2018-07-19T07:28:26.086Z,2.97
2018-07-19T07:30:54.352Z,3.73
2018-07-19T07:33:21.681Z,3.60
2018-07-19T07:35:49.516Z,2.90
2018-07-19T07:38:18.164Z,3.47
2018-07-19T07:40:45.665Z,3.10
2018-07-19T07:43:13.031Z,3.20
2018-07-19T07:45:41.282Z,3.37
2018-07-19T07:48:08.624Z,3.00
2018-07-19T07:50:35.960Z,3.10
2018-07-19T07:53:03.776Z,3.20
2018-07-19T07:55:31.146Z,3.13
2018-07-19T07:57:59.331Z,3.40
2018-07-19T08:00:26.763Z,3.40
2018-07-19T08:02:54.466Z,3.53
2018-07-19T08:05:22.424Z,3.90
2018-07-19T08:07:49.781Z,3.97
2018-07-19T08:10:17.097Z,3.30
2018-07-19T08:12:44.577Z,3.23
2018-07-19T08:15:11.949Z,3.97
2018-07-19T08:17:40.249Z,3.30
2018-07-19T08:20:07.568Z,3.10
2018-07-19T08:22:36.650Z,3.40
2018-07-19T08:25:04.117Z,3.57
2018-07-19T08:27:31.440Z,3.40
2018-07-19T08:29:58.811Z,3.37
2018-07-19T08:32:26.183Z,3.33
2018-07-19T08:34:53.538Z,3.50
2018-07-19T08:37:20.903Z,3.20
2018-07-19T08:39:48.266Z,2.83
2018-07-19T08:42:15.647Z,3.10
2018-07-19T08:44:43.000Z,2.80
2018-07-19T08:47:13.305Z,3.70
2018-07-19T08:49:40.645Z,3.17
2018-07-19T08:52:09.936Z,3.00
2018-07-19T08:54:37.269Z,3.30
2018-07-19T08:57:04.729Z,3.20
2018-07-19T08:59:32.219Z,2.73
2018-07-19T09:02:00.509Z,3.00
2018-07-19T09:04:29.351Z,3.13
2018-07-19T09:06:56.731Z,3.27
2018-07-19T09:09:26.850Z,3.23
2018-07-19T09:11:54.175Z,2.83
2018-07-19T09:14:21.658Z,3.00
2018-07-19T09:16:49.012Z,3.03
2018-07-19T09:19:16.358Z,2.90
2018-07-19T09:21:43.713Z,3.00
2018-07-19T09:24:11.060Z,2.83
2018-07-19T09:26:39.295Z,2.90
2018-07-19T09:29:06.707Z,2.87
2018-07-19T09:31:34.170Z,2.90
2018-07-19T09:34:01.558Z,2.67
2018-07-19T09:36:28.947Z,3.10
2018-07-19T09:38:57.279Z,2.50
2018-07-19T09:41:24.653Z,2.50
2018-07-19T09:43:52.048Z,2.80
2018-07-19T09:46:19.890Z,2.90
2018-07-19T09:48:47.324Z,3.17
2018-07-19T09:51:14.649Z,3.50
2018-07-19T09:53:41.982Z,3.07
2018-07-19T09:56:10.385Z,2.33
2018-07-19T09:58:37.763Z,2.97
2018-07-19T10:01:10.433Z,2.70
2018-07-19T10:03:38.765Z,2.97
2018-07-19T10:06:06.120Z,2.53
2018-07-19T10:08:33.493Z,2.87
2018-07-19T10:11:06.625Z,3.00
2018-07-19T10:13:34.153Z,3.27
2018-07-19T10:16:01.477Z,3.47
2018-07-19T10:18:28.939Z,2.70
2018-07-19T10:20:56.308Z,2.63
2018-07-19T10:23:23.763Z,2.40
2018-07-19T10:25:51.138Z,2.47
2018-07-19T10:28:18.598Z,3.00
2018-07-19T10:30:45.972Z,2.40
2018-07-19T10:33:13.525Z,2.60
2018-07-19T10:35:40.858Z,2.50
2018-07-19T10:38:08.237Z,2.90
2018-07-19T10:40:35.577Z,2.63
2018-07-19T10:43:02.994Z,2.90
2018-07-19T10:45:30.293Z,2.30
2018-07-19T10:47:57.712Z,2.03
2018-07-19T10:50:25.894Z,2.60
2018-07-19T10:52:53.227Z,1.90
2018-07-19T10:55:20.599Z,2.60
2018-07-19T10:57:47.983Z,2.50
2018-07-19T11:00:15.330Z,2.47
2018-07-19T11:02:42.636Z,2.70
2018-07-19T11:05:10.543Z,2.00
2018-07-19T11:07:38.849Z,2.20
2018-07-19T11:10:07.203Z,2.10
2018-07-19T11:12:34.543Z,2.50
2018-07-19T11:15:01.869Z,2.30
2018-07-19T11:17:29.775Z,2.10
2018-07-19T11:19:57.097Z,2.63
2018-07-19T11:22:24.417Z,1.90
2018-07-19T11:24:55.614Z,2.30
2018-07-19T11:27:23.000Z,2.40
2018-07-19T11:29:50.344Z,2.30
2018-07-19T11:32:20.483Z,2.17
2018-07-19T11:34:47.919Z,2.20
2018-07-19T11:37:15.295Z,2.13
2018-07-19T11:39:42.707Z,2.73
2018-07-19T11:42:10.287Z,2.47
2018-07-19T11:44:37.580Z,2.80
2018-07-19T11:47:04.912Z,2.07
2018-07-19T11:49:34.194Z,2.70
2018-07-19T11:52:01.548Z,2.90
2018-07-19T11:54:29.079Z,2.90
2018-07-19T11:56:56.534Z,2.50
2018-07-19T11:59:24.966Z,2.40
2018-07-19T12:01:52.859Z,2.20
2018-07-19T12:04:20.499Z,2.27
2018-07-19T12:06:47.862Z,2.50
2018-07-19T12:09:16.087Z,2.73
2018-07-19T12:11:43.476Z,2.50
2018-07-19T12:14:10.864Z,2.60
2018-07-19T12:16:38.217Z,2.67
2018-07-19T12:19:07.537Z,2.63
2018-07-19T12:21:35.014Z,2.50
2018-07-19T12:24:02.326Z,2.40
2018-07-19T12:26:35.543Z,2.30
2018-07-19T12:29:02.859Z,2.53
2018-07-19T12:31:30.182Z,2.50
2018-07-19T12:33:57.588Z,2.80
2018-07-19T12:36:24.909Z,2.70
2018-07-19T12:38:53.098Z,2.47
2018-07-19T12:41:20.454Z,2.77
2018-07-19T12:43:49.757Z,2.90
2018-07-19T12:46:17.192Z,2.80
2018-07-19T12:48:44.550Z,2.50
2018-07-19T12:51:11.878Z,3.23
2018-07-19T12:53:39.260Z,2.80
2018-07-19T12:56:06.637Z,3.30
2018-07-19T12:58:34.037Z,2.60
2018-07-19T13:01:01.345Z,2.67
2018-07-19T13:03:28.666Z,3.00
2018-07-19T13:05:56.157Z,2.60
2018-07-19T13:08:23.463Z,2.40
2018-07-19T13:10:51.267Z,2.87
2018-07-19T13:13:18.890Z,2.50
2018-07-19T13:15:47.392Z,3.00
2018-07-19T13:18:14.766Z,3.03
2018-07-19T13:20:43.082Z,2.90
2018-07-19T13:23:10.544Z,3.20
2018-07-19T13:25:37.928Z,2.77
2018-07-19T13:28:05.333Z,2.70
2018-07-19T13:30:34.773Z,3.13
2018-07-19T13:33:04.958Z,2.97
2018-07-19T13:35:32.357Z,2.70
2018-07-19T13:37:59.761Z,3.23
2018-07-19T13:40:27.748Z,2.77
2018-07-19T13:42:55.123Z,2.77
2018-07-19T13:45:22.465Z,3.43
2018-07-19T13:47:50.430Z,2.97
2018-07-19T13:50:17.833Z,3.40
2018-07-19T13:52:50.779Z,2.77
2018-07-19T13:55:20.767Z,3.03
2018-07-19T13:57:48.078Z,3.07
2018-07-19T14:00:15.942Z,3.47
2018-07-19T14:02:43.422Z,3.20
2018-07-19T14:05:12.377Z,3.40
2018-07-19T14:07:39.703Z,3.40
2018-07-19T14:10:08.869Z,3.00
2018-07-19T14:12:36.188Z,3.47
2018-07-19T14:15:03.584Z,3.30
2018-07-19T14:17:31.117Z,3.40
2018-07-19T14:19:58.440Z,2.87
2018-07-19T14:22:30.472Z,3.00
2018-07-19T14:24:59.723Z,2.97
2018-07-19T14:27:26.996Z,3.17
2018-07-19T14:29:54.305Z,3.40
2018-07-19T14:32:22.546Z,3.20
2018-07-19T14:34:50.825Z,3.10
2018-07-19T14:37:18.210Z,2.97
2018-07-19T14:39:49.133Z,3.07
2018-07-19T14:42:16.457Z,3.17
2018-07-19T14:44:43.888Z,3.00
2018-07-19T14:47:11.342Z,2.90
2018-07-19T14:49:38.717Z,2.63
2018-07-19T14:52:06.224Z,2.50
2018-07-19T14:54:34.023Z,3.00
2018-07-19T14:57:07.025Z,2.67
2018-07-19T14:59:34.990Z,3.00
2018-07-19T15:02:02.356Z,2.30
2018-07-19T15:04:33.939Z,2.70
2018-07-19T15:07:01.347Z,3.13
2018-07-19T15:09:28.709Z,2.70
2018-07-19T15:11:56.101Z,3.10
2018-07-19T15:14:25.533Z,3.00
2018-07-19T15:16:56.262Z,2.63
2018-07-19T15:19:26.171Z,2.97
2018-07-19T15:21:54.044Z,2.80
2018-07-19T15:24:21.393Z,2.60
2018-07-19T15:26:48.787Z,2.77
2018-07-19T15:29:16.305Z,2.80
2018-07-19T15:31:44.799Z,2.70
2018-07-19T15:34:12.162Z,2.70
2018-07-19T15:36:40.779Z,2.83
2018-07-19T15:39:12.332Z,2.43
2018-07-19T15:41:39.755Z,3.30
2018-07-19T15:44:07.172Z,2.90
2018-07-19T15:46:34.802Z,3.17
2018-07-19T15:49:02.181Z,3.00
2018-07-19T15:51:30.530Z,3.00
2018-07-19T15:53:57.855Z,2.87
2018-07-19T15:56:26.241Z,4.03
2018-07-19T15:58:59.356Z,3.13
2018-07-19T16:01:26.982Z,3.03
2018-07-19T16:03:54.579Z,2.83
2018-07-19T16:06:21.907Z,2.90
2018-07-19T16:08:49.476Z,2.90
2018-07-19T16:11:16.914Z,3.23
2018-07-19T16:13:45.247Z,3.83
2018-07-19T16:16:12.656Z,3.13
2018-07-19T16:18:40.421Z,3.13
2018-07-19T16:21:07.743Z,3.10
2018-07-19T16:23:35.029Z,3.40
2018-07-19T16:26:02.343Z,3.53
2018-07-19T16:28:32.692Z,3.10
2018-07-19T16:31:00.090Z,3.47
2018-07-19T16:33:27.447Z,2.60
2018-07-19T16:35:54.777Z,3.60
2018-07-19T16:38:22.151Z,3.33
2018-07-19T16:40:50.624Z,3.20
2018-07-19T16:43:18.079Z,4.17
2018-07-19T16:45:46.421Z,3.30
2018-07-19T16:48:13.866Z,3.17
2018-07-19T16:50:45.518Z,3.70
2018-07-19T16:53:12.972Z,3.50
2018-07-19T16:55:40.364Z,3.43
2018-07-19T16:58:07.719Z,3.40
2018-07-19T17:00:35.055Z,3.33
2018-07-19T17:03:02.740Z,3.10
2018-07-19T17:05:30.155Z,3.70
2018-07-19T17:07:59.647Z,3.53
2018-07-19T17:10:27.222Z,3.30
2018-07-19T17:12:54.667Z,3.60
2018-07-19T17:15:22.059Z,4.63
2018-07-19T17:17:49.518Z,3.50
2018-07-19T17:20:16.967Z,3.53
2018-07-19T17:22:44.312Z,3.87
2018-07-19T17:25:13.083Z,3.67
2018-07-19T17:27:40.457Z,3.60
2018-07-19T17:30:07.988Z,3.50
2018-07-19T17:32:35.459Z,4.23
2018-07-19T17:35:02.884Z,3.73
2018-07-19T17:37:30.194Z,3.53
2018-07-19T17:39:57.747Z,3.77
2018-07-19T17:42:25.683Z,4.00
2018-07-19T17:44:53.254Z,3.40
2018-07-19T17:47:20.753Z,3.53
2018-07-19T17:49:48.112Z,4.10
2018-07-19T17:52:15.485Z,3.70
2018-07-19T17:54:42.916Z,3.23
2018-07-19T17:57:10.758Z,4.00
2018-07-19T17:59:38.278Z,3.90
2018-07-19T18:02:05.637Z,4.33
2018-07-19T18:04:33.166Z,7.90
2018-07-19T18:07:00.629Z,3.67
2018-07-19T18:09:28.036Z,3.70
2018-07-19T18:11:55.697Z,4.40
2018-07-19T18:14:23.185Z,4.40
2018-07-19T18:16:50.771Z,4.60
2018-07-19T18:19:18.121Z,3.93
2018-07-19T18:21:45.661Z,3.87
2018-07-19T18:24:13.041Z,4.43
2018-07-19T18:26:40.458Z,3.60
2018-07-19T18:29:07.994Z,4.30
2018-07-19T18:31:36.065Z,4.13
2018-07-19T18:34:03.477Z,4.03
2018-07-19T18:36:31.023Z,3.80
2018-07-19T18:38:58.394Z,4.50
2018-07-19T18:41:25.831Z,3.60
2018-07-19T18:43:53.268Z,3.80
2018-07-19T18:46:20.658Z,4.13
2018-07-19T18:48:48.122Z,4.23
2018-07-19T18:51:16.396Z,3.53
2018-07-19T18:53:44.039Z,4.27
2018-07-19T18:56:11.574Z,3.60
2018-07-19T18:58:39.160Z,3.80
2018-07-19T19:01:06.736Z,3.50
2018-07-19T19:03:34.293Z,4.03
2018-07-19T19:06:01.773Z,4.10
2018-07-19T19:08:29.169Z,4.00
2018-07-19T19:10:56.629Z,4.37
2018-07-19T19:13:24.036Z,4.43
2018-07-19T19:15:51.467Z,3.93
2018-07-19T19:18:19.466Z,4.03
2018-07-19T19:20:46.806Z,3.97
2018-07-19T19:23:14.201Z,3.60
2018-07-19T19:25:41.579Z,4.20
2018-07-19T19:28:09.053Z,4.23
2018-07-19T19:30:36.491Z,4.90
2018-07-19T19:33:03.944Z,4.10
2018-07-19T19:35:31.637Z,3.93
2018-07-19T19:37:59.097Z,4.90
2018-07-19T19:40:26.513Z,4.33
2018-07-19T19:42:53.819Z,4.90
2018-07-19T19:45:21.544Z,3.97
2018-07-19T19:47:48.925Z,4.60
2018-07-19T19:50:16.315Z,3.70
2018-07-19T19:52:43.764Z,4.30
2018-07-19T19:55:11.137Z,4.53
2018-07-19T19:57:38.564Z,4.20
2018-07-19T20:00:06.204Z,4.00
2018-07-19T20:02:33.615Z,4.63
2018-07-19T20:05:01.151Z,4.40
2018-07-19T20:07:29.006Z,4.60
2018-07-19T20:09:56.473Z,4.47
2018-07-19T20:12:23.929Z,4.80
2018-07-19T20:14:51.341Z,4.70
2018-07-19T20:17:18.765Z,4.63
2018-07-19T20:19:46.297Z,4.80
2018-07-19T20:22:13.691Z,4.90
2018-07-19T20:24:41.867Z,4.30
2018-07-19T20:27:09.306Z,4.30
2018-07-19T20:29:36.819Z,4.43
2018-07-19T20:32:04.500Z,4.30
2018-07-19T20:34:32.270Z,4.57
2018-07-19T20:36:59.814Z,4.23
2018-07-19T20:39:27.734Z,4.57
2018-07-19T20:41:57.354Z,4.83
2018-07-19T20:44:27.973Z,4.47
2018-07-19T20:46:55.467Z,4.03
2018-07-19T20:49:22.893Z,4.20
2018-07-19T20:51:50.345Z,4.07
2018-07-19T20:54:17.755Z,4.30
2018-07-19T20:56:45.826Z,4.70
2018-07-19T20:59:13.697Z,4.90
2018-07-19T21:01:41.090Z,4.10
2018-07-19T21:04:08.470Z,4.60
2018-07-19T21:06:35.783Z,4.70
2018-07-19T21:09:04.232Z,4.90
2018-07-19T21:11:31.933Z,4.00
2018-07-19T21:14:00.768Z,4.70
2018-07-19T21:16:28.145Z,4.67
2018-07-19T21:18:55.551Z,4.80
2018-07-19T21:21:23.170Z,4.63
2018-07-19T21:23:52.104Z,4.60
2018-07-19T21:26:19.490Z,5.10
2018-07-19T21:28:46.931Z,5.30
2018-07-19T21:31:14.307Z,5.30
2018-07-19T21:33:41.804Z,5.33
2018-07-19T21:36:09.718Z,5.03
2018-07-19T21:38:37.124Z,4.80
2018-07-19T21:41:05.026Z,4.93
2018-07-19T21:43:32.920Z,5.10
2018-07-19T21:46:02.437Z,4.80
2018-07-19T21:48:29.977Z,5.30
2018-07-19T21:50:57.816Z,5.67
2018-07-19T21:53:25.665Z,6.20
2018-07-19T21:55:53.392Z,5.53
2018-07-19T21:58:21.411Z,6.30
2018-07-19T22:00:54.244Z,5.63
2018-07-19T22:03:21.739Z,7.37
2018-07-19T22:05:49.264Z,6.77
2018-07-19T22:08:16.715Z,5.97
2018-07-19T22:10:44.514Z,6.73
2018-07-19T22:13:11.940Z,7.47
2018-07-19T22:15:39.590Z,6.50
2018-07-19T22:18:17.010Z,6.57
2018-07-19T22:20:44.336Z,6.53
2018-07-19T22:23:11.941Z,6.50
2018-07-19T22:25:39.468Z,6.67
2018-07-19T22:28:07.268Z,6.60
2018-07-19T22:30:35.735Z,6.60
2018-07-19T22:33:03.233Z,6.30
2018-07-19T22:35:30.578Z,6.50
2018-07-19T22:37:57.983Z,6.60
2018-07-19T22:40:25.313Z,6.53
2018-07-19T22:42:52.714Z,6.60
2018-07-19T22:45:20.557Z,6.57
2018-07-19T22:47:48.386Z,6.50
2018-07-19T22:50:16.040Z,6.67
2018-07-19T22:52:43.353Z,6.70
2018-07-19T22:55:11.554Z,6.73
2018-07-19T22:57:40.860Z,6.70
2018-07-19T23:00:08.429Z,7.53
2018-07-19T23:02:35.859Z,7.33
2018-07-19T23:05:03.294Z,6.87
2018-07-19T23:07:31.117Z,7.70
2018-07-19T23:09:58.783Z,6.77
2018-07-19T23:12:26.289Z,7.40
2018-07-19T23:14:53.697Z,7.77
2018-07-19T23:17:21.468Z,6.70
2018-07-19T23:19:48.796Z,7.80
2018-07-19T23:22:16.944Z,7.00
2018-07-19T23:24:44.609Z,7.77
2018-07-19T23:27:12.239Z,7.40
2018-07-19T23:29:39.668Z,6.93
2018-07-19T23:32:07.221Z,7.30
2018-07-19T23:34:35.221Z,6.90
2018-07-19T23:37:12.404Z,7.27
2018-07-19T23:39:44.320Z,7.97
2018-07-19T23:42:23.452Z,7.83
2018-07-19T23:44:57.052Z,7.20
2018-07-19T23:47:27.940Z,7.30
2018-07-19T23:49:55.430Z,6.60
2018-07-19T23:52:22.798Z,6.67
2018-07-19T23:54:51.614Z,6.83
2018-07-19T23:57:19.096Z,6.60
2018-07-19T23:59:46.431Z,6.63
